Dewey, IL (61840)

6:05 AM CDT on May 04, 2015 (GMT -0500)
Fisher Elmwood Drive | | Change Station
CLOSE
Current Station
Personal Weather Station
Location: Fisher, IL
Elevation: 722 ft
Nearby Weather Stations

Elev 722 ft 40.32 °N, 88.35 °W | Updated 12 minutes ago

Thunderstorm
Thunderstorm
58.5 °F
Feels Like 58.5 °F
N
6.3
Wind Variable Wind from West

Today
High -- | Low -- °F
--% Chance of Precip.
Yesterday
High -- | Low -- °F
Precip. -- in
5:49 AM 7:51 PM
Full, 100% visible
Pressure 30.03 in
Visibility 10.0 miles
Clouds Mostly Cloudy 6500 ft
Mostly Cloudy 8000 ft
Overcast 9500 ft
Dew Point 55 °F
Humidity 89%
Rainfall 0.05 in
Snow Depth Not available.
UV 0 out of 12
Pollen 10.70 out of 12
Air Quality Not available.
Flu Activity Local Activity
METAR KTIP 041055Z AUTO 24011KT 10SM -VCTSRA BKN065 BKN080 OVC095 18/12 A3003 RMK AO2 LTG DSNT ALQS T01800117

More Conditions Fewer Conditions

Pressure 30.03 in
Visibility 10.0 miles
Clouds Mostly Cloudy 6500 ft
Mostly Cloudy 8000 ft
Overcast 9500 ft
Dew Point 55 °F
Humidity 89%
Rainfall 0.05 in
Snow Depth Not available.
UV 0 out of 12
Pollen 10.70 out of 12
Air Quality Not available.
Flu Activity Local Activity
METAR KTIP 041055Z AUTO 24011KT 10SM -VCTSRA BKN065 BKN080 OVC095 18/12 A3003 RMK AO2 LTG DSNT ALQS T01800117

More Conditions Fewer Conditions

Nepal has a long way to go to dig out and rebuild from a devastating earthquake. We have teamed up with several charities and organizations to make contributing to the relief effort as easy as possible.
How you can help: Portlight Strategies | Red Cross

10-Day Weather Forecast

Almanac

Astronomy

May. 04, 2015 Rise Set
Actual Time
Civil Twilight
Nautical Twilight
Astronomical Twilight
Moon
Length of Visible Light
Length of Day
Tomorrow will be .
, % of the Moon is Illuminated

Today's Extremes

State Highs State Lows

Community

WunderPhotos

Upload Photos

1,818,565 photos uploaded!

WunderBlogs® & News

Nearby

Air Quality

  Air Quality AQ Index Pollutant
Not available.

Snow Depth

Station Depth Elevation

Earthquake Activity

City Distance Mag. Time & Date
Minimum magnitude displayed is 2.5.

Coastal Water Temperatures

Place Temperature

Stations

Nearby Weather Stations

Station Location Temp. Windchill Dew Point Humidity Wind Precip. Elev Updated Type